Terminal Aerodrome Forecast
Issued by NWS Cleveland, OH

Home | Current Version | Previous Version | Text Only | Print | Product List | Glossary Off
Versions: 1 2 3 4 5 6 7 8 9 10 11 12 13 14 15 16 17 18 19

000
FTUS41 KCLE 180413 AAB
TAFTOL
TAF AMD
KTOL 180413Z 1804/1824 VRB03KT 1 1/2SM -SN OVC012
     FM180500 27007KT P6SM OVC015
     FM180800 27007KT P6SM OVC025
     FM181300 19005KT P6SM SKC=

USA.gov is the U.S. government's official web portal to all federal, state and local government web resources and services.